Startpagina
METAR-TAF:

METAR-TAF

Vliegvelden :

Kish, Iran

breedte: 26-31-36N, lengte: 053-58-54E, hoogte: 30 m

Actueel weer

Dit bericht is 10 minuten geleden gemaakt, om 23:00 UTC
Wind 4 kt uit het noordnoordwesten
Temperatuur 20°C
Vochtigheid 94%
Druk 1015 hPa
Zicht: 4000 m
nevel

METAR: OIBK 232300Z 33004KT 4000 BR NSC 20/19 Q1015

Tijdstip: 02:40 (23:10 UTC)

Verwachting

Dit bericht is 5 uur en het 20 minuten geleden gemaakt, om 17:50 UTC
Verwachting geldig van 23 om 18 UTC tot 24 om 24 UTC
Wind 4 kt uit het zuidzuidoosten
Zicht: 4000 m
nevel
Tijdelijke
van 23 om 23 UTC tot 24 om 04 UTC
Zicht: 2000 m
nevel
Wijzigt naar
van 24 om 22 UTC tot 24 om 24 UTC
Zicht: 2000 m
nevel

TAF: OIBK 231750Z 2318/2424 15004KT 4000 BR NSC TEMPO 2323/2404 2000 BR BECMG 2422/2424 2000 BR

Waarnemingen en weersverwachtingen van meer dan 4000 vliegvelden (METAR en TAF).

De beschikbare stations zijn de gele en rode punten op de kaart.

Ga met uw muis naar het station om de naam te zien.

Klik dan om waarnemingen en weersverwachtingen te zien.

kaart wijzigen: klik op de groene knoppen met een zwart kruis om in te zoomen, op de groene knop met een streepje om uit te zoomen of op de groene pijlen voor aangrenzende kaarten.


METAR-TAF: